Amalia, New Mexico
Current Conditions -  °F | °C
As of 5:15 PM on Wednesday 22 Oct 2014 (Local Time) from KSKX Reporting Station
Scattered Clouds Scattered Clouds  
Wind Chill: 18°   Ceiling: Unl
Heat Index: 18°   Visibility: 10mi
Dew Point:   Wind: 12mph
Humidity: 30%   Direction: 320°NW
Pressure: 30.2"   Gusts: 16mph
Location:  36.94°N, 105.45°W
Report Text: KSKX 222315Z AUTO 32010G14KT 10SM SCT080 18/00 A3020 RMK AO1
Loading
Personal Weather Stations






























Interactive Weather Map
Tropical Storm Tracking
New forecast layout! Learn more

10-Day Weather Forecast

Advertisements
Track Severe Weather on mobile